createdAt,value
2017-01-10T00:00:03.499Z,96.78
2017-01-10T00:01:04.234Z,95.93
2017-01-10T00:02:04.956Z,96.02
2017-01-10T00:03:05.691Z,96.02
2017-01-10T00:04:06.424Z,96.4
2017-01-10T00:05:07.160Z,96.5
2017-01-10T00:06:07.888Z,96.4
2017-01-10T00:07:08.634Z,96.59
2017-01-10T00:08:09.352Z,96.5
2017-01-10T00:09:10.096Z,96.4
2017-01-10T00:10:10.831Z,96.5
2017-01-10T00:11:11.596Z,96.5
2017-01-10T00:12:12.324Z,95.93
2017-01-10T00:13:13.042Z,96.02
2017-01-10T00:14:13.771Z,95.83
2017-01-10T00:15:14.496Z,96.02
2017-01-10T00:16:15.245Z,96.02
2017-01-10T00:17:15.959Z,96.02
2017-01-10T00:18:16.664Z,96.88
2017-01-10T00:19:17.427Z,96.21
2017-01-10T00:20:18.159Z,96.31
2017-01-10T00:21:18.869Z,95.93
2017-01-10T00:22:19.581Z,96.02
2017-01-10T00:23:20.317Z,96.12
2017-01-10T00:24:21.046Z,95.83
2017-01-10T00:25:21.778Z,95.83
2017-01-10T00:26:22.519Z,95.83
2017-01-10T00:27:23.233Z,96.12
2017-01-10T00:28:23.969Z,96.02
2017-01-10T00:29:24.715Z,96.59
2017-01-10T00:30:25.446Z,96.4
2017-01-10T00:31:26.187Z,96.31
2017-01-10T00:32:26.935Z,96.78
2017-01-10T00:33:27.652Z,96.88
2017-01-10T00:34:28.409Z,96.4
2017-01-10T00:35:29.174Z,96.02
2017-01-10T00:36:29.920Z,96.4
2017-01-10T00:37:30.660Z,96.31
2017-01-10T00:38:31.392Z,96.5
2017-01-10T00:39:32.117Z,96.12
2017-01-10T00:40:32.868Z,96.31
2017-01-10T00:41:33.573Z,96.02
2017-01-10T00:42:34.290Z,95.83
2017-01-10T00:43:35.007Z,95.74
2017-01-10T00:44:35.763Z,95.55
2017-01-10T00:45:36.514Z,95.55
2017-01-10T00:46:37.272Z,95.93
2017-01-10T00:47:38.007Z,95.83
2017-01-10T00:48:38.733Z,95.64
2017-01-10T00:49:39.473Z,96.12
2017-01-10T00:50:40.202Z,95.83
2017-01-10T00:51:40.969Z,96.02
2017-01-10T00:52:41.700Z,96.12
2017-01-10T00:53:42.440Z,95.93
2017-01-10T00:54:43.172Z,95.83
2017-01-10T00:55:43.914Z,96.21
2017-01-10T00:56:44.656Z,95.74
2017-01-10T00:57:45.384Z,95.83
2017-01-10T00:58:46.153Z,96.12
2017-01-10T00:59:47.338Z,95.93
2017-01-10T01:00:48.158Z,95.83
2017-01-10T01:01:48.885Z,95.93
2017-01-10T01:02:49.628Z,96.02
2017-01-10T01:03:50.356Z,95.83
2017-01-10T01:04:51.092Z,95.83
2017-01-10T01:05:51.853Z,95.74
2017-01-10T01:06:53.231Z,95.64
2017-01-10T01:07:53.968Z,95.64
2017-01-10T01:08:54.694Z,95.83
2017-01-10T01:09:55.422Z,95.83
2017-01-10T01:10:56.154Z,95.55
2017-01-10T01:11:56.891Z,95.74
2017-01-10T01:12:57.637Z,96.02
2017-01-10T01:13:59.065Z,95.64
2017-01-10T01:14:59.850Z,95.36
2017-01-10T01:16:00.621Z,95.17
2017-01-10T01:17:01.368Z,95.45
2017-01-10T01:18:02.522Z,95.36
2017-01-10T01:19:03.399Z,95.36
2017-01-10T01:20:04.131Z,95.17
2017-01-10T01:21:04.846Z,95.36
2017-01-10T01:22:05.610Z,95.26
2017-01-10T01:23:06.332Z,95.26
2017-01-10T01:24:07.051Z,94.98
2017-01-10T01:25:07.805Z,95.36
2017-01-10T01:26:08.605Z,94.98
2017-01-10T01:27:09.547Z,95.55
2017-01-10T01:28:11.621Z,95.83
2017-01-10T01:29:12.612Z,95.55
2017-01-10T01:30:13.688Z,95.17
2017-01-10T01:31:14.458Z,95.26
2017-01-10T01:32:15.227Z,95.26
2017-01-10T01:33:16.149Z,94.79
2017-01-10T01:34:16.932Z,95.26
2017-01-10T01:35:18.428Z,95.26
2017-01-10T01:36:19.212Z,95.26
2017-01-10T01:37:19.948Z,94.89
2017-01-10T01:38:20.722Z,94.98
2017-01-10T01:39:21.470Z,94.98
2017-01-10T01:40:22.201Z,94.98
2017-01-10T01:41:23.077Z,95.17
2017-01-10T01:42:23.877Z,95.26
2017-01-10T01:43:24.654Z,94.89
2017-01-10T01:44:25.379Z,95.17
2017-01-10T01:45:26.111Z,95.17
2017-01-10T01:46:26.924Z,95.55
2017-01-10T01:47:27.648Z,95.26
2017-01-10T01:48:28.410Z,95.07
2017-01-10T01:49:29.256Z,95.07
2017-01-10T01:50:30.122Z,94.98
2017-01-10T01:51:30.841Z,95.26
2017-01-10T01:52:31.579Z,94.89
2017-01-10T01:53:32.308Z,95.45
2017-01-10T01:54:33.074Z,95.07
2017-01-10T01:55:33.830Z,95.17
2017-01-10T01:56:34.687Z,95.55
2017-01-10T01:57:35.523Z,94.89
2017-01-10T01:58:36.416Z,94.89
2017-01-10T01:59:37.159Z,95.36
2017-01-10T02:00:37.925Z,94.79
2017-01-10T02:01:38.661Z,95.36
2017-01-10T02:02:39.409Z,95.36
2017-01-10T02:03:40.153Z,94.98
2017-01-10T02:04:40.921Z,95.64
2017-01-10T02:05:41.660Z,95.17
2017-01-10T02:06:42.523Z,95.36
2017-01-10T02:07:43.257Z,95.36
2017-01-10T02:08:43.998Z,95.17
2017-01-10T02:09:44.745Z,95.36
2017-01-10T02:10:45.498Z,95.26
2017-01-10T02:11:46.210Z,95.55
2017-01-10T02:12:46.933Z,95.93
2017-01-10T02:13:47.688Z,96.4
2017-01-10T02:14:48.440Z,96.4
2017-01-10T02:15:49.178Z,96.31
2017-01-10T02:16:49.915Z,96.4
2017-01-10T02:17:50.703Z,97.06
2017-01-10T02:18:51.443Z,97.25
2017-01-10T02:19:52.197Z,96.88
2017-01-10T02:20:52.961Z,96.78
2017-01-10T02:21:53.690Z,96.5
2017-01-10T02:22:54.444Z,96.5
2017-01-10T02:23:55.209Z,96.69
2017-01-10T02:24:55.989Z,96.78
2017-01-10T02:25:56.723Z,96.31
2017-01-10T02:26:57.446Z,96.5
2017-01-10T02:27:58.208Z,96.31
2017-01-10T02:28:58.936Z,96.5
2017-01-10T02:29:59.694Z,96.21
2017-01-10T02:31:00.426Z,96.69
2017-01-10T02:32:01.163Z,96.69
2017-01-10T02:33:01.915Z,96.4
2017-01-10T02:34:02.696Z,96.78
2017-01-10T02:35:03.445Z,96.4
2017-01-10T02:36:04.179Z,96.21
2017-01-10T02:37:04.938Z,96.4
2017-01-10T02:38:05.689Z,96.4
2017-01-10T02:39:06.413Z,96.31
2017-01-10T02:40:07.153Z,96.02
2017-01-10T02:41:07.897Z,95.93
2017-01-10T02:42:08.642Z,96.02
2017-01-10T02:43:09.382Z,96.59
2017-01-10T02:44:10.291Z,96.59
2017-01-10T02:45:11.110Z,96.4
2017-01-10T02:46:11.835Z,96.69
2017-01-10T02:47:12.590Z,95.83
2017-01-10T02:48:13.314Z,96.5
2017-01-10T02:49:14.108Z,96.21
2017-01-10T02:50:14.836Z,96.4
2017-01-10T02:51:15.700Z,96.4
2017-01-10T02:52:16.413Z,96.5
2017-01-10T02:53:17.232Z,96.97
2017-01-10T02:54:17.968Z,97.16
2017-01-10T02:55:18.737Z,96.4
2017-01-10T02:56:19.469Z,96.21
2017-01-10T02:57:20.350Z,96.21
2017-01-10T02:58:21.243Z,96.5
2017-01-10T02:59:22.034Z,96.5
2017-01-10T03:00:22.773Z,96.97
2017-01-10T03:01:23.499Z,96.4
2017-01-10T03:02:24.267Z,96.88
2017-01-10T03:03:25.005Z,96.78
2017-01-10T03:04:25.759Z,96.31
2017-01-10T03:05:26.500Z,96.21
2017-01-10T03:06:27.233Z,96.59
2017-01-10T03:07:27.980Z,96.97
2017-01-10T03:08:28.722Z,96.97
2017-01-10T03:09:29.475Z,97.54
2017-01-10T03:10:30.242Z,97.82
2017-01-10T03:11:30.986Z,97.54
2017-01-10T03:12:31.729Z,98.39
2017-01-10T03:13:33.512Z,98.3
2017-01-10T03:14:34.234Z,98.77
2017-01-10T03:15:34.986Z,98.86
2017-01-10T03:16:35.724Z,98.86
2017-01-10T03:17:36.478Z,99.15
2017-01-10T03:18:37.480Z,99.33
2017-01-10T03:19:38.288Z,99.33
2017-01-10T03:20:39.121Z,99.15
2017-01-10T03:21:39.867Z,99.99
2017-01-10T03:22:40.700Z,99.99
2017-01-10T03:23:41.427Z,99.62
2017-01-10T03:24:42.196Z,99.99
2017-01-10T03:25:42.931Z,99.99
2017-01-10T03:26:43.659Z,99.99
2017-01-10T03:27:44.387Z,99.9
2017-01-10T03:28:45.115Z,99.99
2017-01-10T03:29:46.061Z,99.99
2017-01-10T03:30:47.673Z,99.99
2017-01-10T03:31:48.550Z,99.99
2017-01-10T03:32:49.327Z,99.99
2017-01-10T03:33:50.310Z,99.99
2017-01-10T03:34:51.069Z,99.99
2017-01-10T03:35:51.797Z,99.99
2017-01-10T03:36:52.598Z,99.99
2017-01-10T03:37:53.374Z,99.99
2017-01-10T03:38:56.034Z,99.99
2017-01-10T03:39:56.243Z,99.99
2017-01-10T03:40:57.012Z,99.99
2017-01-10T03:41:57.752Z,99.99
2017-01-10T03:42:58.467Z,99.71
2017-01-10T03:43:59.857Z,99.9
2017-01-10T03:45:00.622Z,99.99
2017-01-10T03:46:01.360Z,99.71
2017-01-10T03:47:02.074Z,99.9
2017-01-10T03:48:02.900Z,99.99
2017-01-10T03:49:03.652Z,99.99
2017-01-10T03:50:04.371Z,99.99
2017-01-10T03:51:05.096Z,99.99
2017-01-10T03:52:05.830Z,99.71
2017-01-10T03:53:06.596Z,99.99
2017-01-10T03:54:07.324Z,99.71
2017-01-10T03:55:08.559Z,99.99
2017-01-10T03:56:09.315Z,99.99
2017-01-10T03:57:10.042Z,99.9
2017-01-10T03:58:10.752Z,99.81
2017-01-10T03:59:11.476Z,99.99
2017-01-10T04:00:12.199Z,99.99
2017-01-10T04:01:12.926Z,99.99
2017-01-10T04:02:13.662Z,99.99
2017-01-10T04:03:14.404Z,99.99
2017-01-10T04:04:15.128Z,99.99
2017-01-10T04:05:15.882Z,99.99
2017-01-10T04:06:16.614Z,99.99
2017-01-10T04:07:17.357Z,99.99
2017-01-10T04:08:18.097Z,99.99
2017-01-10T04:09:18.825Z,99.99
2017-01-10T04:10:19.536Z,99.99
2017-01-10T04:11:20.274Z,99.99
2017-01-10T04:12:21.008Z,99.99
2017-01-10T04:13:21.732Z,99.99
2017-01-10T04:14:22.679Z,99.99
2017-01-10T04:15:23.401Z,99.99
2017-01-10T04:16:24.128Z,99.99
2017-01-10T04:17:25.115Z,99.99
2017-01-10T04:18:25.854Z,99.99
2017-01-10T04:19:26.581Z,99.99
2017-01-10T04:20:27.329Z,99.99
2017-01-10T04:21:28.175Z,99.99
2017-01-10T04:22:28.899Z,99.99
2017-01-10T04:23:29.627Z,99.99
2017-01-10T04:24:30.377Z,99.99
2017-01-10T04:25:31.109Z,99.99
2017-01-10T04:26:31.907Z,99.99
2017-01-10T04:27:32.657Z,99.99
2017-01-10T04:28:33.403Z,99.99
2017-01-10T04:29:34.336Z,99.99
2017-01-10T04:30:35.073Z,99.99
2017-01-10T04:31:35.792Z,99.99
2017-01-10T04:32:36.500Z,99.99
2017-01-10T04:33:37.256Z,99.99
2017-01-10T04:34:37.991Z,99.99
2017-01-10T04:35:38.740Z,99.99
2017-01-10T04:36:39.485Z,99.99
2017-01-10T04:37:40.305Z,99.99
2017-01-10T04:38:41.045Z,99.99
2017-01-10T04:39:41.783Z,99.99
2017-01-10T04:40:42.488Z,99.99
2017-01-10T04:41:43.221Z,99.99
2017-01-10T04:42:43.955Z,99.99
2017-01-10T04:43:44.705Z,99.99
2017-01-10T04:44:45.443Z,99.99
2017-01-10T04:45:46.164Z,99.99
2017-01-10T04:46:46.906Z,99.99
2017-01-10T04:47:47.634Z,99.99
2017-01-10T04:48:48.392Z,99.99
2017-01-10T04:49:49.118Z,99.99
2017-01-10T04:50:49.842Z,99.99
2017-01-10T04:51:50.582Z,99.99
2017-01-10T04:52:51.311Z,99.99
2017-01-10T04:53:52.029Z,99.99
2017-01-10T04:54:52.769Z,99.99
2017-01-10T04:55:53.514Z,99.99
2017-01-10T04:56:54.230Z,99.99
2017-01-10T04:57:54.968Z,99.99
2017-01-10T04:58:55.702Z,99.9
2017-01-10T04:59:56.423Z,99.99
2017-01-10T05:00:57.150Z,99.9
2017-01-10T05:01:57.872Z,99.99
2017-01-10T05:02:58.622Z,99.99
2017-01-10T05:03:59.392Z,99.99
2017-01-10T05:05:00.122Z,99.99
2017-01-10T05:06:00.849Z,99.99
2017-01-10T05:07:01.575Z,99.99
2017-01-10T05:08:02.328Z,99.99
2017-01-10T05:09:03.058Z,99.62
2017-01-10T05:10:03.798Z,99.71
2017-01-10T05:11:04.531Z,99.43
2017-01-10T05:12:05.257Z,99.99
2017-01-10T05:13:05.983Z,99.99
2017-01-10T05:14:06.708Z,99.71
2017-01-10T05:15:07.425Z,99.71
2017-01-10T05:16:08.145Z,99.24
2017-01-10T05:17:08.910Z,99.24
2017-01-10T05:18:09.625Z,99.15
2017-01-10T05:19:10.420Z,99.15
2017-01-10T05:20:11.134Z,99.62
2017-01-10T05:21:11.872Z,99.24
2017-01-10T05:22:12.588Z,99.33
2017-01-10T05:23:13.340Z,99.05
2017-01-10T05:24:14.056Z,99.81
2017-01-10T05:25:14.796Z,99.81
2017-01-10T05:26:15.530Z,99.99
2017-01-10T05:27:16.300Z,98.96
2017-01-10T05:28:17.044Z,99.33
2017-01-10T05:29:17.777Z,99.15
2017-01-10T05:30:18.551Z,99.24
2017-01-10T05:31:19.281Z,99.24
2017-01-10T05:32:20.007Z,99.52
2017-01-10T05:33:20.731Z,99.52
2017-01-10T05:34:21.468Z,99.24
2017-01-10T05:35:22.209Z,99.24
2017-01-10T05:36:22.938Z,99.43
2017-01-10T05:37:23.671Z,99.24
2017-01-10T05:38:24.402Z,99.43
2017-01-10T05:39:25.165Z,99.15
2017-01-10T05:40:25.885Z,99.24
2017-01-10T05:41:26.638Z,99.52
2017-01-10T05:42:27.381Z,99.43
2017-01-10T05:43:28.125Z,99.24
2017-01-10T05:44:28.865Z,99.05
2017-01-10T05:45:29.591Z,99.81
2017-01-10T05:46:30.324Z,99.05
2017-01-10T05:47:31.055Z,99.43
2017-01-10T05:48:31.788Z,99.99
2017-01-10T05:49:32.558Z,99.99
2017-01-10T05:50:33.315Z,99.81
2017-01-10T05:51:34.046Z,99.81
2017-01-10T05:52:34.795Z,99.33
2017-01-10T05:53:35.543Z,99.52
2017-01-10T05:54:36.298Z,99.15
2017-01-10T05:55:37.045Z,99.99
2017-01-10T05:56:37.827Z,99.9
2017-01-10T05:57:38.562Z,99.71
2017-01-10T05:58:39.301Z,99.71
2017-01-10T05:59:40.036Z,99.9
2017-01-10T06:00:40.767Z,99.52
2017-01-10T06:01:41.495Z,99.81
2017-01-10T06:02:42.244Z,99.99
2017-01-10T06:03:42.978Z,99.71
2017-01-10T06:04:43.696Z,99.81
2017-01-10T06:05:44.440Z,99.99
2017-01-10T06:06:45.166Z,99.24
2017-01-10T06:07:45.917Z,98.96
2017-01-10T06:08:46.678Z,99.24
2017-01-10T06:09:47.425Z,99.24
2017-01-10T06:10:48.160Z,99.05
2017-01-10T06:11:48.894Z,99.43
2017-01-10T06:12:49.623Z,99.24
2017-01-10T06:13:50.373Z,99.15
2017-01-10T06:14:51.103Z,99.52
2017-01-10T06:15:51.847Z,99.33
2017-01-10T06:16:52.591Z,99.24
2017-01-10T06:17:53.335Z,99.24
2017-01-10T06:18:54.062Z,99.43
2017-01-10T06:19:54.910Z,98.77
2017-01-10T06:20:55.639Z,99.05
2017-01-10T06:21:56.380Z,98.96
2017-01-10T06:22:57.124Z,99.05
2017-01-10T06:23:57.880Z,99.24
2017-01-10T06:24:58.822Z,99.71
2017-01-10T06:25:59.567Z,99.05
2017-01-10T06:27:00.725Z,99.15
2017-01-10T06:28:01.779Z,99.33
2017-01-10T06:29:02.575Z,99.05
2017-01-10T18:32:12.574Z,94.37
2017-01-10T18:33:12.984Z,94.42
2017-01-10T18:34:13.725Z,94.84
2017-01-10T18:35:14.468Z,94.65
2017-01-10T18:36:15.195Z,95.03
2017-01-10T18:37:15.931Z,95.31
2017-01-10T18:38:16.664Z,95.12
2017-01-10T18:39:17.390Z,94.56
2017-01-10T18:40:18.126Z,94.84
2017-01-10T18:41:18.871Z,95.31
2017-01-10T18:42:19.590Z,94.93
2017-01-10T18:43:20.374Z,95.03
2017-01-10T18:44:21.119Z,95.26
2017-01-10T18:45:21.923Z,95.45
2017-01-10T18:46:23.035Z,95.41
2017-01-10T18:47:23.769Z,95.22
2017-01-10T18:48:24.936Z,96.12
2017-01-10T18:49:25.649Z,95.93
2017-01-10T18:50:26.416Z,96.07
2017-01-10T18:51:27.233Z,95.84
2017-01-10T18:52:28.470Z,96.31
2017-01-10T18:53:29.249Z,96.12
2017-01-10T18:54:30.040Z,96.22
2017-01-10T18:55:30.789Z,96.55
2017-01-10T18:56:31.621Z,96.59
2017-01-10T18:57:32.483Z,96.88
2017-01-10T18:58:33.219Z,97.16
2017-01-10T18:59:33.934Z,97.3
2017-01-10T19:00:34.658Z,97.4
2017-01-10T19:01:35.450Z,97.59
2017-01-10T19:02:36.212Z,97.07
2017-01-10T19:03:36.975Z,97.97
2017-01-10T19:04:37.706Z,97.87
2017-01-10T19:05:38.550Z,97.87
2017-01-10T19:06:39.625Z,98.16
2017-01-10T19:07:40.754Z,98.54
2017-01-10T19:08:41.559Z,98.54
2017-01-10T19:09:42.287Z,98.72
2017-01-10T19:10:43.023Z,99.29
2017-01-10T19:11:43.745Z,99.29
2017-01-10T19:12:44.492Z,99.39
2017-01-10T19:13:45.452Z,99.1
2017-01-10T19:14:46.161Z,99.2
2017-01-10T19:15:46.883Z,99.48
2017-01-10T19:16:47.620Z,99.53
2017-01-10T19:17:48.379Z,99.29
2017-01-10T19:18:49.114Z,99.39
2017-01-10T19:19:49.851Z,99.67
2017-01-10T19:20:50.601Z,99.82
2017-01-10T19:21:51.326Z,99.99
2017-01-10T19:22:52.096Z,99.82
2017-01-10T19:23:52.863Z,99.99
2017-01-10T19:24:53.613Z,99.99
2017-01-10T19:25:54.436Z,99.99
2017-01-10T19:26:55.441Z,99.99
2017-01-10T19:27:56.196Z,99.99
2017-01-10T19:28:56.930Z,99.99
2017-01-10T19:29:57.705Z,99.99
2017-01-10T19:30:58.515Z,99.99
2017-01-10T19:32:00.042Z,99.99
2017-01-10T19:33:01.324Z,99.99
2017-01-10T19:34:02.206Z,99.99
2017-01-10T19:35:02.937Z,99.99
2017-01-10T19:36:03.679Z,99.99
2017-01-10T19:37:04.411Z,99.99
2017-01-10T19:38:05.195Z,99.99
2017-01-10T19:39:06.028Z,99.99
2017-01-10T19:40:06.799Z,99.99
2017-01-10T19:41:07.632Z,99.99
2017-01-10T19:42:08.419Z,99.99
2017-01-10T19:43:09.202Z,99.99
2017-01-10T19:44:10.696Z,99.99
2017-01-10T19:45:11.437Z,99.99
2017-01-10T19:46:12.252Z,99.99
2017-01-10T19:47:13.313Z,99.99
2017-01-10T19:48:15.174Z,99.99
2017-01-10T19:49:15.998Z,99.99
2017-01-10T19:50:16.997Z,99.99
2017-01-10T19:51:19.705Z,99.99
2017-01-10T19:52:21.061Z,99.99
2017-01-10T19:53:21.826Z,99.99
2017-01-10T19:54:22.678Z,99.99
2017-01-10T19:55:23.435Z,99.99
2017-01-10T19:56:24.223Z,99.99
2017-01-10T19:57:24.986Z,99.99
2017-01-10T19:58:25.752Z,99.99
2017-01-10T19:59:27.081Z,99.99
2017-01-10T20:00:28.034Z,99.99
2017-01-10T20:01:28.844Z,99.99
2017-01-10T20:02:30.165Z,99.99
2017-01-10T20:03:31.060Z,99.99
2017-01-10T20:04:32.113Z,99.99
2017-01-10T20:05:32.859Z,99.99
2017-01-10T20:06:33.900Z,99.99
2017-01-10T20:07:34.665Z,99.99
2017-01-10T20:08:36.017Z,99.99
2017-01-10T20:09:36.875Z,99.99
2017-01-10T20:10:37.913Z,99.99
2017-01-10T20:11:39.133Z,99.99
2017-01-10T20:12:39.996Z,99.99
2017-01-10T20:13:40.758Z,99.99
2017-01-10T20:14:41.529Z,99.99
2017-01-10T20:15:42.787Z,99.99
2017-01-10T20:16:44.136Z,99.99
2017-01-10T20:17:45.414Z,99.99
2017-01-10T20:18:46.158Z,99.99
2017-01-10T20:19:46.940Z,99.99
2017-01-10T20:20:47.735Z,99.99
2017-01-10T20:21:48.482Z,99.99
2017-01-10T20:22:49.213Z,99.99
2017-01-10T20:23:50.072Z,99.99
2017-01-10T20:24:50.970Z,99.99
2017-01-10T20:25:51.780Z,99.99
2017-01-10T20:26:52.543Z,99.99
2017-01-10T20:27:53.266Z,99.99
2017-01-10T20:28:54.035Z,99.99
2017-01-10T20:29:54.824Z,99.99
2017-01-10T20:30:55.607Z,99.99
2017-01-10T20:31:56.431Z,99.99
2017-01-10T20:32:57.183Z,99.99
2017-01-10T20:33:57.943Z,99.99
2017-01-10T20:34:58.666Z,99.99
2017-01-10T20:35:59.393Z,99.99
2017-01-10T20:37:00.142Z,99.99
2017-01-10T20:38:00.858Z,99.99
2017-01-10T20:39:01.640Z,99.99
2017-01-10T20:40:02.369Z,99.99
2017-01-10T20:41:03.095Z,99.99
2017-01-10T20:42:03.822Z,99.99
2017-01-10T20:43:04.557Z,99.99
2017-01-10T20:44:05.295Z,99.99
2017-01-10T20:45:06.157Z,99.99
2017-01-10T20:46:06.890Z,99.99
2017-01-10T20:47:07.757Z,99.99
2017-01-10T20:48:08.440Z,99.99
2017-01-10T20:49:09.184Z,99.99
2017-01-10T20:50:09.932Z,99.99
2017-01-10T20:51:10.702Z,99.99
2017-01-10T20:52:11.436Z,99.99
2017-01-10T20:53:12.162Z,99.99
2017-01-10T20:54:12.894Z,99.99
2017-01-10T20:55:13.865Z,99.99
2017-01-10T20:56:14.588Z,99.99
2017-01-10T20:57:15.306Z,99.99
2017-01-10T20:58:16.032Z,99.99
2017-01-10T20:59:16.771Z,99.99
2017-01-10T21:00:17.715Z,99.99
2017-01-10T21:01:18.736Z,99.99
2017-01-10T21:02:19.623Z,99.99
2017-01-10T21:03:20.469Z,99.99
2017-01-10T21:04:21.206Z,99.99
2017-01-10T21:05:21.931Z,99.99
2017-01-10T21:06:22.658Z,99.99
2017-01-10T21:07:23.395Z,99.99
2017-01-10T21:08:24.149Z,99.99
2017-01-10T21:09:24.900Z,99.99
2017-01-10T21:10:25.764Z,99.99
2017-01-10T21:11:27.544Z,99.99
2017-01-10T21:12:28.324Z,99.99
2017-01-10T21:13:29.064Z,99.99
2017-01-10T21:14:29.806Z,99.99
2017-01-10T21:15:30.553Z,99.99
2017-01-10T21:16:31.385Z,99.99
2017-01-10T21:17:32.171Z,99.99
2017-01-10T21:18:32.912Z,99.99
2017-01-10T21:19:33.703Z,99.99
2017-01-10T21:20:34.442Z,99.99
2017-01-10T21:21:35.183Z,99.99
2017-01-10T21:22:35.974Z,99.99
2017-01-10T21:23:36.773Z,99.99
2017-01-10T21:24:37.567Z,99.99
2017-01-10T21:25:38.317Z,99.99
2017-01-10T21:26:39.076Z,99.99
2017-01-10T21:27:39.893Z,99.99
2017-01-10T21:28:40.627Z,99.99
2017-01-10T21:29:41.397Z,99.99
2017-01-10T21:30:42.126Z,99.99
2017-01-10T21:31:42.859Z,99.99
2017-01-10T21:32:43.594Z,99.99
2017-01-10T21:33:44.320Z,99.99
2017-01-10T21:34:45.058Z,99.99
2017-01-10T21:35:45.786Z,99.99
2017-01-10T21:36:46.528Z,99.99
2017-01-10T21:37:47.274Z,99.99
2017-01-10T21:38:47.997Z,99.99
2017-01-10T21:39:48.733Z,99.99
2017-01-10T21:40:49.477Z,99.99
2017-01-10T21:41:50.229Z,99.99
2017-01-10T21:42:50.953Z,99.99
2017-01-10T21:43:51.730Z,99.99
2017-01-10T21:44:52.475Z,99.99
2017-01-10T21:45:53.212Z,99.99
2017-01-10T21:46:53.966Z,99.99
2017-01-10T21:47:54.703Z,99.99
2017-01-10T21:48:55.450Z,99.99
2017-01-10T21:49:56.186Z,99.99
2017-01-10T21:50:56.916Z,99.99
2017-01-10T21:51:57.665Z,99.99
2017-01-10T21:52:58.404Z,99.99
2017-01-10T21:53:59.139Z,99.99
2017-01-10T21:54:59.893Z,99.99
2017-01-10T21:56:00.622Z,99.99
2017-01-10T21:57:01.343Z,99.99
2017-01-10T21:58:02.073Z,99.99
2017-01-10T21:59:02.953Z,99.99
2017-01-10T22:00:06.184Z,99.99
2017-01-10T22:01:06.925Z,99.99
2017-01-10T22:02:07.840Z,99.99
2017-01-10T22:03:08.663Z,99.99
2017-01-10T22:04:09.507Z,99.99
2017-01-10T22:05:10.288Z,99.99
2017-01-10T22:06:11.018Z,99.99
2017-01-10T22:07:11.785Z,99.99
2017-01-10T22:08:12.577Z,99.99
2017-01-10T22:09:14.332Z,99.99
2017-01-10T22:10:15.576Z,99.99
2017-01-10T22:11:16.376Z,99.99
2017-01-10T22:12:17.199Z,99.99
2017-01-10T22:13:18.828Z,99.99
2017-01-10T22:14:20.211Z,99.99
2017-01-10T22:15:21.103Z,99.99
2017-01-10T22:16:21.834Z,99.99
2017-01-10T22:17:22.685Z,99.99
2017-01-10T22:18:23.490Z,99.99
2017-01-10T22:19:24.273Z,99.99
2017-01-10T22:20:25.079Z,99.99
2017-01-10T22:21:26.381Z,99.99
2017-01-10T22:22:27.158Z,99.99
2017-01-10T22:23:27.901Z,99.99
2017-01-10T22:24:28.867Z,99.99
2017-01-10T22:25:29.743Z,99.99
2017-01-10T22:26:30.620Z,99.99
2017-01-10T22:27:31.370Z,99.99
2017-01-10T22:28:32.197Z,99.99
2017-01-10T22:29:33.024Z,99.99
2017-01-10T22:30:33.845Z,99.99
2017-01-10T22:31:34.703Z,99.99
2017-01-10T22:32:35.478Z,99.99
2017-01-10T22:33:36.306Z,99.99
2017-01-10T22:34:37.246Z,99.99
2017-01-10T22:35:38.014Z,99.99
2017-01-10T22:36:38.863Z,99.99
2017-01-10T22:37:39.632Z,99.99
2017-01-10T22:38:40.522Z,99.99
2017-01-10T22:39:41.350Z,99.99
2017-01-10T22:40:44.105Z,99.99
2017-01-10T22:41:45.380Z,99.99
2017-01-10T22:42:46.229Z,99.99
2017-01-10T22:43:47.024Z,99.99
2017-01-10T22:44:49.497Z,99.99
2017-01-10T22:45:51.187Z,99.99
2017-01-10T22:46:52.708Z,99.99
2017-01-10T22:47:53.811Z,99.99
2017-01-10T22:48:54.786Z,99.99
2017-01-10T22:49:55.692Z,99.99
2017-01-10T22:50:57.809Z,99.99
2017-01-10T22:51:58.627Z,99.99
2017-01-10T22:53:00.259Z,99.99
2017-01-10T22:54:01.495Z,99.99
2017-01-10T22:55:02.263Z,99.99
2017-01-10T22:56:03.010Z,99.99
2017-01-10T22:57:03.817Z,99.99
2017-01-10T22:58:04.540Z,99.99
2017-01-10T22:59:06.108Z,99.99
2017-01-10T23:00:06.916Z,99.99
2017-01-10T23:01:07.809Z,99.99
2017-01-10T23:02:08.631Z,99.99
2017-01-10T23:03:09.445Z,99.99
2017-01-10T23:04:10.271Z,99.99
2017-01-10T23:05:11.030Z,99.99
2017-01-10T23:06:11.911Z,99.99
2017-01-10T23:07:12.725Z,99.99
2017-01-10T23:08:13.468Z,99.99
2017-01-10T23:09:14.652Z,99.99
2017-01-10T23:10:15.449Z,99.99
2017-01-10T23:11:16.317Z,99.99
2017-01-10T23:12:17.096Z,99.99
2017-01-10T23:13:17.851Z,99.99
2017-01-10T23:14:18.602Z,99.99
2017-01-10T23:15:19.406Z,99.99
2017-01-10T23:16:20.170Z,99.99
2017-01-10T23:17:20.915Z,99.99
2017-01-10T23:18:21.652Z,99.99
2017-01-10T23:19:22.370Z,99.99
2017-01-10T23:20:23.379Z,99.99
2017-01-10T23:21:24.123Z,99.99
2017-01-10T23:22:25.062Z,99.99
2017-01-10T23:23:25.784Z,99.99
2017-01-10T23:24:26.521Z,99.99
2017-01-10T23:25:27.251Z,99.99
2017-01-10T23:26:27.995Z,99.99
2017-01-10T23:27:28.878Z,99.99
2017-01-10T23:28:29.613Z,99.99
2017-01-10T23:29:30.372Z,99.99
2017-01-10T23:30:31.124Z,99.99
2017-01-10T23:31:31.842Z,99.99
2017-01-10T23:32:32.717Z,99.99
2017-01-10T23:33:33.470Z,99.99
2017-01-10T23:34:34.885Z,99.99
2017-01-10T23:35:37.137Z,99.99
2017-01-10T23:36:37.892Z,99.99
2017-01-10T23:37:38.663Z,99.99
2017-01-10T23:38:39.402Z,99.99
2017-01-10T23:39:40.153Z,99.99
2017-01-10T23:40:41.309Z,99.99
2017-01-10T23:41:42.868Z,99.99
2017-01-10T23:42:43.519Z,99.99
2017-01-10T23:43:44.265Z,99.99
2017-01-10T23:44:44.994Z,99.99
2017-01-10T23:45:45.734Z,99.99
2017-01-10T23:46:46.478Z,99.99
2017-01-10T23:47:47.200Z,99.99
2017-01-10T23:48:47.936Z,99.99
2017-01-10T23:49:48.669Z,99.99
2017-01-10T23:50:49.412Z,99.99
2017-01-10T23:51:50.188Z,99.99
2017-01-10T23:52:50.909Z,99.99
2017-01-10T23:53:51.909Z,99.99
2017-01-10T23:54:52.651Z,99.99
2017-01-10T23:55:53.424Z,99.99
2017-01-10T23:56:54.243Z,99.99
2017-01-10T23:57:54.977Z,99.99
2017-01-10T23:58:55.714Z,99.99
2017-01-10T23:59:56.461Z,99.99
